Time;durP1;ratioP1;P1;durP2;ratioP2;P2;SDS_P1;SDS_P2;PMS_P1;PMS_P2;Temp;Humidity;BMP_temperature;BMP_pressure;BME280_temperature;BME280_humidity;BME280_pressure;Samples;Min_cycle;Max_cycle;Signal;HPM_P1;HPM_P2
2021/06/18 00:00:17;;;;;;;5.15;2.50;;;;;;;20.22;64.38;100249.12;1712027;82;21086;-75
2021/06/18 00:02:44;;;;;;;6.47;2.77;;;;;;;20.17;64.29;100249.21;1734821;82;22297;-75
2021/06/18 00:05:12;;;;;;;6.12;3.17;;;;;;;20.08;64.19;100243.63;1712548;82;21528;-74
2021/06/18 00:07:40;;;;;;;7.47;2.42;;;;;;;20.06;64.38;100242.29;1682991;84;20988;-80
2021/06/18 00:10:10;;;;;;;5.25;2.60;;;;;;;20.05;64.34;100244.20;1684360;84;21508;-80
2021/06/18 00:12:37;;;;;;;3.20;2.22;;;;;;;20.03;64.02;100243.71;1671438;82;21039;-74
2021/06/18 00:15:05;;;;;;;5.67;2.47;;;;;;;19.99;64.11;100247.61;1734947;82;21095;-73
2021/06/18 00:17:32;;;;;;;6.10;2.58;;;;;;;19.97;64.02;100244.34;1698111;82;21095;-76
2021/06/18 00:19:58;;;;;;;4.45;2.30;;;;;;;19.90;64.01;100246.63;1689676;83;21504;-76
2021/06/18 00:22:24;;;;;;;4.53;2.20;;;;;;;19.81;64.04;100240.78;1709948;82;21056;-74
2021/06/18 00:24:51;;;;;;;4.85;2.20;;;;;;;19.74;64.34;100237.64;1677212;84;21051;-74
2021/06/18 00:27:17;;;;;;;4.45;2.60;;;;;;;19.70;64.55;100235.25;1665075;85;21064;-76
2021/06/18 00:29:43;;;;;;;5.85;2.60;;;;;;;19.64;64.70;100230.41;1699677;82;21007;-77
2021/06/18 00:32:10;;;;;;;10.08;2.70;;;;;;;19.58;64.61;100230.23;1673736;84;20971;-74
2021/06/18 00:34:37;;;;;;;3.37;2.15;;;;;;;19.56;64.58;100232.45;1672934;85;21016;-75
2021/06/18 00:37:04;;;;;;;4.47;2.37;;;;;;;19.53;64.46;100233.84;1687126;84;21036;-73
2021/06/18 00:39:30;;;;;;;3.42;2.47;;;;;;;19.50;64.43;100234.45;1683992;84;21050;-75
2021/06/18 00:41:57;;;;;;;4.70;2.47;;;;;;;19.47;64.24;100238.33;1671660;84;21059;-84
2021/06/18 00:44:24;;;;;;;7.55;2.20;;;;;;;19.42;64.27;100235.64;1703009;84;21699;-78
2021/06/18 00:46:50;;;;;;;5.97;2.62;;;;;;;19.40;64.33;100233.75;1696216;83;20990;-78
2021/06/18 00:49:17;;;;;;;4.40;2.92;;;;;;;19.38;64.24;100232.67;1688355;84;20964;-80
2021/06/18 00:51:44;;;;;;;2.27;1.70;;;;;;;19.34;64.09;100235.73;1694526;84;21546;-79
2021/06/18 00:54:13;;;;;;;3.90;2.22;;;;;;;19.31;64.00;100226.78;1699095;83;21508;-75
2021/06/18 00:56:41;;;;;;;2.77;2.33;;;;;;;19.26;64.06;100228.77;1702621;83;21087;-78
2021/06/18 00:59:07;;;;;;;5.30;2.17;;;;;;;19.23;64.02;100228.00;1702253;83;21037;-77
2021/06/18 01:01:34;;;;;;;4.10;2.42;;;;;;;19.21;64.02;100228.84;1676130;84;21547;-77
2021/06/18 01:04:00;;;;;;;6.28;2.08;;;;;;;19.18;64.08;100229.43;1703227;82;20979;-74
2021/06/18 01:06:30;;;;;;;3.47;1.82;;;;;;;19.15;64.11;100230.27;1684633;83;20971;-72
2021/06/18 01:09:02;;;;;;;2.83;2.00;;;;;;;19.15;64.12;100230.27;1674776;84;21618;-73
2021/06/18 01:12:00;;;;;;;6.28;2.17;;;;;;;19.14;64.17;100223.73;1677769;83;21531;-74
2021/06/18 01:14:38;;;;;;;3.70;1.95;;;;;;;19.09;63.96;100216.43;1605187;88;21610;-73
2021/06/18 01:17:16;;;;;;;9.88;2.27;;;;;;;19.02;64.14;100220.63;1686837;84;21099;-74
2021/06/18 01:19:57;;;;;;;3.05;2.20;;;;;;;18.99;64.19;100214.41;1677498;84;21022;-73
2021/06/18 01:22:23;;;;;;;3.00;2.02;;;;;;;18.98;64.12;100217.69;1702674;83;21180;-72
2021/06/18 01:25:07;;;;;;;3.83;2.17;;;;;;;18.93;64.34;100219.11;1690860;84;21481;-73
2021/06/18 01:27:45;;;;;;;4.72;1.90;;;;;;;18.89;64.31;100213.99;1701157;83;21153;-74
2021/06/18 01:30:18;;;;;;;2.98;1.95;;;;;;;18.87;64.26;100215.38;1702697;83;21505;-73
2021/06/18 01:32:57;;;;;;;;;;;;;;;18.82;64.25;100220.88;1711691;82;20951;-73
2021/06/18 01:35:27;;;;;;;3.37;1.82;;;;;;;18.75;64.30;100221.80;1737548;82;20183;-73
2021/06/18 01:37:55;;;;;;;7.60;2.08;;;;;;;18.66;64.35;100216.16;1712520;82;21046;-74
2021/06/18 01:40:23;;;;;;;1.85;1.65;;;;;;;18.62;64.43;100218.66;1737603;82;20990;-74
2021/06/18 01:42:50;;;;;;;7.92;2.05;;;;;;;18.61;64.65;100210.77;1730335;82;21771;-75
2021/06/18 01:45:18;;;;;;;5.80;1.85;;;;;;;18.60;64.47;100214.06;1706390;84;20927;-76
2021/06/18 01:47:46;;;;;;;3.95;1.67;;;;;;;18.59;64.46;100212.44;1706234;83;21009;-74
2021/06/18 01:50:19;;;;;;;3.47;1.77;;;;;;;18.59;64.34;100209.72;1697162;82;21051;-74
2021/06/18 01:52:51;;;;;;;;;;;;;;;18.56;64.23;100206.19;1739964;82;21102;-74
2021/06/18 01:55:23;;;;;;;4.20;2.40;;;;;;;18.54;64.23;100206.23;1737468;82;21062;-74
2021/06/18 01:57:53;;;;;;;4.42;1.77;;;;;;;18.49;64.37;100204.34;1736814;82;21019;-74
2021/06/18 02:00:21;;;;;;;1.80;1.40;;;;;;;18.49;64.28;100209.79;1733442;82;21019;-74
2021/06/18 02:02:47;;;;;;;2.40;1.77;;;;;;;18.49;64.39;100211.16;1736138;82;21013;-73
2021/06/18 02:05:14;;;;;;;6.17;1.60;;;;;;;18.47;64.21;100212.53;1688627;82;21095;-74
2021/06/18 02:07:40;;;;;;;3.47;1.80;;;;;;;18.45;64.18;100209.30;1737162;82;21194;-75
2021/06/18 02:10:08;;;;;;;2.08;1.90;;;;;;;18.42;64.29;100202.50;1727745;82;20956;-74
2021/06/18 02:12:35;;;;;;;2.10;1.80;;;;;;;18.41;64.22;100213.16;1736714;82;20951;-73
2021/06/18 02:15:07;;;;;;;3.20;1.65;;;;;;;18.40;64.30;100210.16;1737173;82;21020;-73
2021/06/18 02:17:35;;;;;;;5.35;2.25;;;;;;;18.39;64.17;100200.91;1737376;82;21536;-74
2021/06/18 02:20:05;;;;;;;6.00;1.90;;;;;;;18.36;64.30;100202.31;1676747;85;21061;-74
2021/06/18 02:22:31;;;;;;;2.75;1.77;;;;;;;18.32;64.60;100201.24;1711929;83;20990;-74
2021/06/18 02:24:58;;;;;;;7.40;2.17;;;;;;;18.29;64.54;100189.58;1712208;83;21050;-73
2021/06/18 02:27:25;;;;;;;2.55;2.10;;;;;;;18.28;64.48;100191.48;1685386;83;21066;-71
2021/06/18 02:29:51;;;;;;;3.85;1.72;;;;;;;18.29;64.70;100198.56;1694527;83;21064;-72
2021/06/18 02:32:18;;;;;;;2.30;1.65;;;;;;;18.29;64.43;100199.92;1701407;83;21078;-72
2021/06/18 02:34:44;;;;;;;3.33;1.77;;;;;;;18.23;64.51;100202.42;1701981;84;20998;-71
2021/06/18 02:37:11;;;;;;;1.85;1.65;;;;;;;18.22;64.51;100212.27;1679748;84;21075;-72
2021/06/18 02:39:39;;;;;;;5.33;1.47;;;;;;;18.22;64.65;100220.44;1702119;83;21008;-72
2021/06/18 02:42:06;;;;;;;2.30;1.90;;;;;;;18.23;64.67;100225.58;1701959;84;21578;-72
2021/06/18 02:44:33;;;;;;;6.92;3.25;;;;;;;18.24;64.71;100219.03;1701967;84;21863;-73
2021/06/18 02:47:33;;;;;;;6.12;2.22;;;;;;;18.23;64.78;100224.76;1701787;84;20971;-72
2021/06/18 02:50:40;;;;;;;2.90;1.50;;;;;;;18.21;64.82;100232.42;1677453;84;20995;-75
2021/06/18 02:53:32;;;;;;;4.03;2.00;;;;;;;18.20;64.62;100227.52;1701712;84;20979;-74
2021/06/18 02:56:03;;;;;;;4.40;1.82;;;;;;;18.16;64.87;100234.64;1678357;84;21023;-74
2021/06/18 02:59:00;;;;;;;1.65;1.55;;;;;;;18.16;64.93;100227.02;1679893;84;21063;-74
2021/06/18 03:01:29;;;;;;;2.05;1.47;;;;;;;18.14;64.91;100239.55;1699703;84;21110;-72
2021/06/18 03:03:59;;;;;;;1.45;1.35;;;;;;;18.13;65.01;100236.55;1654480;85;21539;-72
2021/06/18 03:06:26;;;;;;;2.52;1.85;;;;;;;18.09;65.24;100245.03;1637179;85;21039;-74
2021/06/18 03:08:59;;;;;;;8.93;2.00;;;;;;;18.11;65.28;100237.95;1680090;85;21043;-72
2021/06/18 03:11:28;;;;;;;4.05;1.87;;;;;;;18.13;65.25;100251.53;1636640;85;24949;-75
2021/06/18 03:13:57;;;;;;;7.92;2.75;;;;;;;18.15;65.43;100243.09;1701335;84;21034;-74
2021/06/18 03:16:24;;;;;;;2.42;1.92;;;;;;;18.15;65.12;100249.34;1628970;86;21045;-73
2021/06/18 03:18:51;;;;;;;2.27;1.60;;;;;;;18.16;65.13;100253.70;1703377;84;21539;-73
2021/06/18 03:21:17;;;;;;;4.65;2.33;;;;;;;18.17;65.33;100257.23;1697462;84;21023;-73
2021/06/18 03:23:44;;;;;;;5.50;2.37;;;;;;;18.14;65.24;100252.34;1700780;84;21959;-73
2021/06/18 03:26:11;;;;;;;5.50;1.77;;;;;;;18.14;65.18;100246.36;1655054;84;20956;-72
2021/06/18 03:28:38;;;;;;;8.00;2.25;;;;;;;18.17;65.47;100243.08;1627949;86;21576;-74
2021/06/18 03:31:08;;;;;;;4.03;2.05;;;;;;;18.18;65.32;100243.31;1651334;84;21001;-73
2021/06/18 03:33:33;;;;;;;3.62;1.90;;;;;;;18.19;65.13;100244.95;1675200;84;21087;-73
2021/06/18 03:36:02;;;;;;;2.02;1.80;;;;;;;18.21;65.25;100241.95;1699555;84;20981;-73
2021/06/18 03:38:29;;;;;;;6.47;2.98;;;;;;;18.23;65.26;100244.63;1702576;83;20956;-71
2021/06/18 03:40:55;;;;;;;4.97;2.45;;;;;;;18.24;65.19;100250.35;1702504;84;21544;-75
2021/06/18 03:43:21;;;;;;;3.12;2.27;;;;;;;18.22;65.39;100247.09;1712330;83;21559;-73
2021/06/18 03:45:50;;;;;;;5.60;1.80;;;;;;;18.24;65.29;100237.28;1685493;83;21066;-74
2021/06/18 03:48:17;;;;;;;5.42;1.80;;;;;;;18.27;65.37;100241.59;1666255;85;21169;-73
2021/06/18 03:50:44;;;;;;;5.70;2.02;;;;;;;18.30;65.33;100237.50;1656219;85;21110;-75
2021/06/18 03:53:14;;;;;;;3.22;1.70;;;;;;;18.33;65.10;100235.55;1656298;85;21079;-73
2021/06/18 03:55:41;;;;;;;8.75;1.90;;;;;;;18.36;65.51;100240.45;1684419;83;21007;-77
2021/06/18 03:58:09;;;;;;;4.53;1.65;;;;;;;18.37;65.04;100236.59;1634558;85;21638;-76
2021/06/18 04:00:36;;;;;;;6.53;3.83;;;;;;;18.36;65.16;100241.81;1634480;85;21167;-75
2021/06/18 04:03:04;;;;;;;3.77;2.60;;;;;;;18.41;64.91;100251.29;1681755;85;21094;-74
2021/06/18 04:05:31;;;;;;;9.60;2.42;;;;;;;18.45;65.20;100237.35;1688755;83;21092;-75
2021/06/18 04:07:58;;;;;;;9.20;3.70;;;;;;;18.52;64.84;100253.34;1683738;83;20979;-75
2021/06/18 04:10:25;;;;;;;6.97;4.12;;;;;;;18.58;64.69;100251.67;1712260;83;21089;-74
2021/06/18 04:12:53;;;;;;;5.80;2.77;;;;;;;18.63;64.67;100254.34;1711888;83;22017;-73
2021/06/18 04:15:23;;;;;;;3.17;2.15;;;;;;;18.68;64.68;100252.93;1677210;85;21018;-72
2021/06/18 04:17:51;;;;;;;7.00;3.00;;;;;;;18.72;64.81;100256.70;1686119;83;21528;-72
2021/06/18 04:20:20;;;;;;;3.58;2.72;;;;;;;18.79;64.91;100260.45;1681864;85;21596;-72
2021/06/18 04:22:49;;;;;;;9.15;2.45;;;;;;;18.84;64.62;100253.58;1682042;85;21011;-75
2021/06/18 04:25:16;;;;;;;5.00;2.52;;;;;;;18.89;64.43;100252.16;1656381;85;21140;-72
2021/06/18 04:27:43;;;;;;;6.10;1.72;;;;;;;18.92;64.49;100250.20;1656578;85;21042;-74
2021/06/18 04:30:13;;;;;;;7.35;2.40;;;;;;;18.95;64.26;100252.33;1681872;85;20955;-75
2021/06/18 04:32:39;;;;;;;11.60;2.35;;;;;;;19.02;64.28;100256.89;1689320;83;21126;-75
2021/06/18 04:35:08;;;;;;;5.70;3.12;;;;;;;19.12;64.00;100260.05;1683313;85;21094;-74
2021/06/18 04:37:35;;;;;;;1.92;1.60;;;;;;;19.18;63.71;100251.48;1652615;85;21800;-74
2021/06/18 04:40:03;;;;;;;13.00;2.30;;;;;;;19.22;63.59;100252.28;1668338;85;21543;-73
2021/06/18 04:42:30;;;;;;;3.95;2.52;;;;;;;19.25;63.76;100251.69;1683613;85;21034;-74
2021/06/18 04:44:58;;;;;;;3.02;1.60;;;;;;;19.29;63.63;100244.53;1683135;84;21098;-81
2021/06/18 04:47:25;;;;;;;13.40;2.45;;;;;;;19.34;63.35;100250.73;1659728;85;21061;-73
2021/06/18 04:49:52;;;;;;;7.85;2.33;;;;;;;19.38;63.12;100249.59;1683163;85;21267;-73
2021/06/18 04:52:19;;;;;;;6.42;2.30;;;;;;;19.43;63.30;100256.34;1683301;85;21065;-73
2021/06/18 04:54:46;;;;;;;2.67;1.67;;;;;;;19.49;63.22;100267.48;1657952;85;21243;-73
2021/06/18 04:57:15;;;;;;;7.65;1.80;;;;;;;19.55;63.11;100260.84;1654381;86;21130;-74
2021/06/18 04:59:42;;;;;;;2.70;1.98;;;;;;;19.59;63.03;100259.96;1654534;85;21666;-73
2021/06/18 05:02:08;;;;;;;2.27;1.92;;;;;;;19.69;62.76;100263.64;1659681;85;21126;-73
2021/06/18 05:04:35;;;;;;;3.67;2.33;;;;;;;19.74;62.45;100263.02;1683345;85;21083;-73
2021/06/18 05:07:02;;;;;;;5.87;2.02;;;;;;;19.78;62.55;100252.30;1659652;85;20959;-73
2021/06/18 05:09:28;;;;;;;3.90;1.98;;;;;;;19.84;62.32;100259.31;1683168;85;21046;-74
2021/06/18 05:11:55;;;;;;;8.85;2.75;;;;;;;19.91;62.26;100260.55;1659722;85;21122;-74
2021/06/18 05:14:22;;;;;;;2.30;1.77;;;;;;;19.98;61.96;100256.08;1683113;85;21112;-75
2021/06/18 05:16:49;;;;;;;6.15;2.65;;;;;;;20.01;61.58;100252.19;1683451;85;20958;-74
2021/06/18 05:19:16;;;;;;;3.83;2.20;;;;;;;20.08;61.93;100256.47;1642073;86;21597;-73
2021/06/18 05:21:42;;;;;;;5.58;2.25;;;;;;;20.15;61.94;100258.24;1655027;85;21115;-73
2021/06/18 05:24:09;;;;;;;2.98;2.30;;;;;;;20.20;61.49;100257.61;1683387;85;21078;-73
2021/06/18 05:26:36;;;;;;;5.83;2.02;;;;;;;20.26;61.43;100244.13;1659454;85;21065;-73
2021/06/18 05:29:02;;;;;;;3.50;1.95;;;;;;;20.34;61.41;100239.91;1683272;85;21540;-73
2021/06/18 05:31:30;;;;;;;5.95;2.30;;;;;;;20.39;61.24;100243.91;1659260;85;20971;-74
2021/06/18 05:33:56;;;;;;;11.05;2.90;;;;;;;20.45;61.27;100240.80;1672355;84;21584;-74
2021/06/18 05:36:25;;;;;;;3.98;1.62;;;;;;;20.54;61.06;100245.56;1697429;84;21504;-73
2021/06/18 05:38:52;;;;;;;5.67;2.00;;;;;;;20.61;60.62;100244.62;1688984;84;21188;-74
2021/06/18 05:41:18;;;;;;;5.33;1.95;;;;;;;20.68;60.61;100243.64;1655529;85;21097;-71
2021/06/18 05:43:44;;;;;;;2.90;1.98;;;;;;;20.72;60.08;100248.20;1680176;84;20978;-72
2021/06/18 05:46:11;;;;;;;5.00;2.30;;;;;;;20.77;60.54;100246.73;1683671;85;21032;-72
2021/06/18 05:48:39;;;;;;;5.15;2.02;;;;;;;20.82;60.78;100248.55;1702561;84;21063;-74
2021/06/18 05:51:06;;;;;;;3.50;2.02;;;;;;;20.87;60.15;100247.09;1675987;85;21145;-73
2021/06/18 05:53:34;;;;;;;5.62;2.70;;;;;;;20.93;60.32;100251.91;1632130;86;21589;-73
2021/06/18 05:56:00;;;;;;;2.60;1.52;;;;;;;20.94;60.42;100258.44;1701603;84;21015;-72
2021/06/18 05:58:27;;;;;;;11.65;3.20;;;;;;;20.99;60.28;100260.27;1654333;86;21118;-72
2021/06/18 06:00:53;;;;;;;7.78;2.60;;;;;;;21.05;60.14;100257.69;1683292;85;21067;-73
2021/06/18 06:03:20;;;;;;;7.62;2.62;;;;;;;21.13;60.41;100255.06;1684370;84;21017;-73
2021/06/18 06:05:46;;;;;;;12.63;2.70;;;;;;;21.19;59.84;100262.06;1631275;86;20967;-73
2021/06/18 06:08:13;;;;;;;4.00;1.72;;;;;;;21.24;59.55;100252.93;1651782;85;21003;-73
2021/06/18 06:10:41;;;;;;;6.72;2.37;;;;;;;21.30;59.31;100263.99;1680717;85;21536;-72
2021/06/18 06:13:09;;;;;;;5.22;2.42;;;;;;;21.36;59.55;100264.70;1703085;84;22162;-72
2021/06/18 06:15:36;;;;;;;4.83;2.12;;;;;;;21.40;59.60;100259.67;1680339;84;21037;-72
2021/06/18 06:18:02;;;;;;;6.03;2.33;;;;;;;21.45;59.35;100258.74;1683408;85;21023;-71
2021/06/18 06:20:28;;;;;;;4.20;2.08;;;;;;;21.49;58.83;100256.45;1702825;84;21556;-72
2021/06/18 06:22:55;;;;;;;4.33;2.00;;;;;;;21.52;59.20;100258.59;1668439;85;21010;-72
2021/06/18 06:25:21;;;;;;;5.30;2.58;;;;;;;21.60;59.08;100264.69;1655226;86;20994;-73
2021/06/18 06:27:48;;;;;;;7.30;2.75;;;;;;;21.67;59.06;100264.27;1703282;84;21499;-72
2021/06/18 06:30:15;;;;;;;6.35;2.17;;;;;;;21.72;58.83;100262.23;1654101;86;20963;-73
2021/06/18 06:32:42;;;;;;;9.50;2.60;;;;;;;21.74;58.96;100259.98;1683033;85;22191;-73
2021/06/18 06:35:10;;;;;;;3.33;1.95;;;;;;;21.80;59.23;100266.15;1730754;83;20999;-72
2021/06/18 06:37:38;;;;;;;4.87;1.95;;;;;;;21.89;59.30;100262.09;1710670;83;21095;-74
2021/06/18 06:40:07;;;;;;;2.20;2.00;;;;;;;21.95;58.83;100260.34;1706392;83;21287;-73
2021/06/18 06:42:34;;;;;;;8.48;1.87;;;;;;;21.99;58.31;100254.48;1687638;83;21134;-71
2021/06/18 06:45:00;;;;;;;5.85;2.27;;;;;;;22.05;58.20;100249.69;1728654;82;21104;-73
2021/06/18 06:47:27;;;;;;;11.20;2.50;;;;;;;22.09;58.18;100258.90;1728440;83;21071;-72
2021/06/18 06:49:53;;;;;;;3.27;1.82;;;;;;;22.14;58.37;100258.22;1740673;82;21024;-73
2021/06/18 06:52:20;;;;;;;5.92;2.25;;;;;;;22.25;58.09;100248.37;1740730;81;21114;-74
2021/06/18 06:54:47;;;;;;;2.67;1.62;;;;;;;22.31;57.87;100250.64;1740567;82;20952;-73
2021/06/18 06:57:16;;;;;;;3.83;1.98;;;;;;;22.37;57.70;100234.88;1709873;82;21039;-73
2021/06/18 06:59:42;;;;;;;7.15;1.67;;;;;;;22.43;57.31;100236.36;1688152;83;22176;-71
2021/06/18 07:02:09;;;;;;;6.33;2.40;;;;;;;22.50;57.50;100236.15;1706296;83;21021;-73
2021/06/18 07:04:36;;;;;;;5.15;2.12;;;;;;;22.57;57.79;100240.63;1687708;83;21320;-71
2021/06/18 07:07:03;;;;;;;5.28;1.80;;;;;;;22.62;57.29;100238.31;1728587;82;20965;-71
2021/06/18 07:09:31;;;;;;;4.35;2.00;;;;;;;22.67;56.98;100241.47;1740531;82;21197;-74
2021/06/18 07:11:57;;;;;;;3.45;2.08;;;;;;;22.72;57.25;100239.44;1730817;83;21062;-73
2021/06/18 07:14:24;;;;;;;5.83;2.40;;;;;;;22.79;57.56;100244.44;1681895;85;21090;-74
2021/06/18 07:16:51;;;;;;;2.98;1.57;;;;;;;22.86;56.60;100238.75;1708932;83;22072;-73
2021/06/18 07:19:17;;;;;;;6.87;2.02;;;;;;;22.89;56.31;100232.63;1682153;84;21067;-73
2021/06/18 07:21:47;;;;;;;5.20;1.60;;;;;;;22.94;56.67;100236.59;1709544;83;21020;-74
2021/06/18 07:24:13;;;;;;;6.05;2.85;;;;;;;22.99;56.62;100233.70;1688733;83;21018;-75
2021/06/18 07:26:40;;;;;;;3.95;2.25;;;;;;;23.07;56.60;100231.31;1706363;83;21072;-73
2021/06/18 07:29:06;;;;;;;2.52;1.70;;;;;;;23.13;56.30;100230.01;1706541;84;21116;-73
2021/06/18 07:31:33;;;;;;;2.87;1.52;;;;;;;23.16;55.81;100228.02;1710703;82;21081;-72
2021/06/18 07:34:01;;;;;;;4.47;1.95;;;;;;;23.22;55.94;100226.71;1705632;82;22327;-74
2021/06/18 07:36:27;;;;;;;3.87;1.50;;;;;;;23.28;56.37;100227.63;1689268;84;21666;-72
2021/06/18 07:38:54;;;;;;;1.55;1.45;;;;;;;23.37;55.68;100224.88;1658580;85;21079;-73
2021/06/18 07:41:20;;;;;;;7.37;2.40;;;;;;;23.43;55.22;100223.04;1704168;84;21046;-74
2021/06/18 07:43:47;;;;;;;7.62;1.92;;;;;;;23.49;55.19;100227.84;1704617;84;21026;-73
2021/06/18 07:46:14;;;;;;;6.25;2.02;;;;;;;23.59;55.73;100234.95;1704273;84;21050;-73
2021/06/18 07:48:40;;;;;;;10.95;1.40;;;;;;;23.71;55.60;100237.84;1681974;84;21561;-75
2021/06/18 07:51:08;;;;;;;3.37;1.55;;;;;;;23.84;55.57;100243.16;1704255;84;21007;-76
2021/06/18 07:53:34;;;;;;;2.25;1.65;;;;;;;23.94;54.74;100239.27;1704534;84;21804;-75
2021/06/18 07:56:01;;;;;;;2.85;1.45;;;;;;;24.02;54.34;100241.22;1691618;84;21003;-75
2021/06/18 07:58:28;;;;;;;5.80;2.00;;;;;;;24.05;53.44;100241.94;1705591;84;21011;-74
2021/06/18 08:00:55;;;;;;;12.60;2.30;;;;;;;24.11;53.49;100246.70;1704269;84;20948;-75
2021/06/18 08:03:22;;;;;;;5.00;1.80;;;;;;;24.18;53.89;100252.52;1704333;84;21094;-73
2021/06/18 08:05:49;;;;;;;3.55;1.40;;;;;;;24.26;53.29;100248.41;1682144;84;21089;-73
2021/06/18 08:08:15;;;;;;;3.42;1.47;;;;;;;24.29;53.11;100242.23;1704004;84;20990;-75
2021/06/18 08:10:42;;;;;;;3.52;2.00;;;;;;;24.33;53.80;100250.63;1711296;82;21063;-73
2021/06/18 08:13:08;;;;;;;3.25;1.95;;;;;;;24.40;53.24;100259.20;1728737;82;21480;-74
2021/06/18 08:15:35;;;;;;;4.70;1.90;;;;;;;24.47;52.80;100253.98;1681951;84;21570;-75
2021/06/18 08:18:02;;;;;;;6.97;2.60;;;;;;;24.53;53.04;100254.62;1704108;84;21275;-74
2021/06/18 08:20:29;;;;;;;7.00;1.80;;;;;;;24.58;53.37;100270.38;1682177;84;21124;-74
2021/06/18 08:22:56;;;;;;;3.55;2.02;;;;;;;24.68;53.35;100258.20;1704326;83;21030;-75
2021/06/18 08:25:23;;;;;;;2.95;2.50;;;;;;;24.82;52.41;100279.43;1704571;84;21035;-74
2021/06/18 08:27:50;;;;;;;4.30;2.25;;;;;;;24.96;51.87;100273.16;1704034;84;21024;-74
2021/06/18 08:30:18;;;;;;;4.12;1.80;;;;;;;25.05;50.74;100264.85;1681792;84;21104;-74
2021/06/18 08:32:45;;;;;;;4.42;1.37;;;;;;;25.10;50.19;100261.91;1704225;84;20983;-74
2021/06/18 08:35:12;;;;;;;5.65;1.90;;;;;;;25.11;50.09;100256.65;1683725;82;21562;-74
2021/06/18 08:37:39;;;;;;;2.12;1.57;;;;;;;25.14;50.38;100257.34;1716839;82;21011;-74
2021/06/18 08:40:07;;;;;;;3.33;1.20;;;;;;;25.18;50.54;100259.67;1682285;84;21135;-77
2021/06/18 08:42:34;;;;;;;4.67;2.33;;;;;;;25.25;50.43;100240.69;1682188;84;21047;-75
2021/06/18 08:45:01;;;;;;;3.90;1.85;;;;;;;25.35;50.42;100256.01;1706427;83;21619;-74
2021/06/18 08:47:28;;;;;;;5.80;1.55;;;;;;;25.49;50.55;100259.31;1683401;83;21206;-72
2021/06/18 08:49:55;;;;;;;6.65;2.27;;;;;;;25.61;49.23;100257.45;1685626;83;21062;-74
2021/06/18 08:52:22;;;;;;;6.37;2.75;;;;;;;25.72;48.67;100259.23;1711902;82;21047;-73
2021/06/18 08:54:50;;;;;;;4.85;1.92;;;;;;;25.80;48.50;100251.48;1711747;83;21164;-75
2021/06/18 08:57:20;;;;;;;11.63;1.60;;;;;;;25.85;48.40;100265.62;1685273;83;21071;-73
2021/06/18 08:59:48;;;;;;;14.75;2.95;;;;;;;25.89;48.61;100268.75;1684946;83;20945;-77
2021/06/18 09:02:15;;;;;;;2.40;1.77;;;;;;;25.95;48.94;100268.75;1703748;83;21075;-73
2021/06/18 09:05:09;;;;;;;2.40;1.80;;;;;;;26.04;48.52;100265.34;1698238;82;21058;-77
2021/06/18 09:08:00;;;;;;;8.90;2.02;;;;;;;26.17;47.43;100259.31;1733744;81;21071;-74
2021/06/18 09:10:40;;;;;;;6.05;1.95;;;;;;;26.21;47.20;100263.56;1717162;81;20916;-81
2021/06/18 09:13:16;;;;;;;3.60;1.90;;;;;;;26.21;47.37;100259.43;1736419;82;21599;-78
2021/06/18 09:15:50;;;;;;;4.72;1.55;;;;;;;26.25;46.99;100250.73;1719046;82;21207;-80
2021/06/18 09:18:37;;;;;;;18.42;1.95;;;;;;;26.24;46.48;100258.77;1715508;82;21051;-79
2021/06/18 09:21:14;;;;;;;2.62;1.75;;;;;;;26.26;46.94;100262.81;1708565;82;21061;-77
2021/06/18 09:23:45;;;;;;;12.30;2.10;;;;;;;26.30;47.23;100264.31;1681758;85;21075;-78
2021/06/18 09:26:35;;;;;;;14.45;1.75;;;;;;;26.42;47.65;100258.84;1686355;83;21065;-77
2021/06/18 09:29:17;;;;;;;5.60;1.90;;;;;;;26.50;46.32;100257.92;1711903;83;21568;-75
2021/06/18 09:31:54;;;;;;;11.88;2.65;;;;;;;26.50;46.52;100268.97;1712166;83;21050;-77
2021/06/18 09:37:31;;;;;;;16.17;2.50;;;;;;;26.55;46.57;100253.56;1659947;85;21014;-81
2021/06/18 09:40:17;;;;;;;6.05;1.47;;;;;;;26.65;46.55;100259.21;1683536;85;21619;-76
2021/06/18 09:42:57;;;;;;;8.13;2.10;;;;;;;26.72;46.25;100261.63;1683652;85;21086;-79
2021/06/18 09:45:32;;;;;;;5.30;1.70;;;;;;;26.79;46.42;100250.83;1673088;85;21103;-75
2021/06/18 09:48:21;;;;;;;5.10;2.17;;;;;;;26.85;46.31;100240.37;1688462;83;21164;-78
2021/06/18 09:50:52;;;;;;;1.77;1.47;;;;;;;26.92;46.14;100237.05;1691213;84;21034;-74
2021/06/18 09:53:24;;;;;;;13.38;2.15;;;;;;;27.02;46.62;100229.68;1678344;84;21031;-76
2021/06/18 09:56:09;;;;;;;8.93;2.98;;;;;;;27.14;46.21;100213.92;1678215;84;21011;-77
2021/06/18 09:58:48;;;;;;;2.85;1.62;;;;;;;27.20;45.10;100232.41;1655295;86;21126;-75
2021/06/18 10:01:32;;;;;;;4.85;1.90;;;;;;;27.19;45.38;100225.30;1633340;86;21826;-76
2021/06/18 10:04:07;;;;;;;10.05;2.27;;;;;;;27.23;45.55;100231.16;1658640;85;21083;-86
2021/06/18 10:06:35;;;;;;;5.72;2.25;;;;;;;27.30;45.37;100229.17;1659943;85;21563;-73
2021/06/18 10:09:09;;;;;;;10.38;1.87;;;;;;;27.33;45.45;100224.36;1683628;85;20980;-75
2021/06/18 10:11:41;;;;;;;3.80;2.05;;;;;;;27.44;45.32;100219.93;1682918;85;21046;-81
2021/06/18 10:14:06;;;;;;;4.37;2.30;;;;;;;27.53;45.15;100217.08;1687183;83;21088;-83
2021/06/18 10:16:33;;;;;;;2.83;1.75;;;;;;;27.61;45.60;100228.56;1682867;85;21031;-77
2021/06/18 10:19:01;;;;;;;6.50;1.80;;;;;;;27.69;45.00;100210.44;1705732;83;20999;-83
2021/06/18 10:21:30;;;;;;;7.80;1.90;;;;;;;27.69;44.80;100221.50;1705623;84;21031;-79
2021/06/18 10:24:02;;;;;;;4.58;2.62;;;;;;;27.74;45.04;100216.30;1683889;85;21512;-80
2021/06/18 10:26:29;;;;;;;3.10;2.00;;;;;;;27.78;45.07;100224.69;1704308;84;21725;-75
2021/06/18 10:28:59;;;;;;;5.15;1.62;;;;;;;27.81;44.82;100214.32;1660514;84;21728;-75
2021/06/18 10:31:37;;;;;;;13.62;2.72;;;;;;;27.75;45.09;100220.10;1660085;85;20992;-76
2021/06/18 10:34:09;;;;;;;6.65;1.85;;;;;;;27.84;45.01;100221.90;1679249;82;21110;-77
2021/06/18 10:36:36;;;;;;;5.87;2.22;;;;;;;27.96;44.61;100224.63;1714408;81;21477;-84
2021/06/18 10:39:14;;;;;;;11.03;2.55;;;;;;;27.98;44.26;100217.57;1656693;83;20976;-79
2021/06/18 10:41:52;;;;;;;5.97;2.00;;;;;;;27.99;44.65;100215.03;1711764;83;21087;-74
2021/06/18 10:44:42;;;;;;;6.03;2.37;;;;;;;27.97;44.53;100213.19;1712214;83;21068;-82
2021/06/18 10:47:34;;;;;;;3.85;2.00;;;;;;;27.90;44.89;100217.16;1694193;84;21076;-79
2021/06/18 10:50:02;;;;;;;9.93;1.80;;;;;;;27.81;44.86;100220.66;1660226;83;21061;-76
2021/06/18 10:52:53;;;;;;;3.50;1.47;;;;;;;27.77;45.27;100215.58;1711966;83;21934;-80
2021/06/18 10:55:14;;;;;;;2.45;2.20;;;;;;;27.76;45.43;100216.77;1711215;82;20994;-77
2021/06/18 10:57:52;;;;;;;3.22;1.95;;;;;;;27.80;45.25;100213.52;1685528;83;21023;-77
2021/06/18 11:00:24;;;;;;;3.58;1.87;;;;;;;27.82;45.20;100211.79;1711689;83;21102;-76
2021/06/18 11:02:51;;;;;;;17.20;2.40;;;;;;;27.88;45.38;100212.55;1685788;83;21034;-77
2021/06/18 11:05:31;;;;;;;8.88;2.40;;;;;;;27.98;45.65;100207.08;1710983;83;22304;-75
2021/06/18 11:08:18;;;;;;;3.50;2.00;;;;;;;28.05;45.02;100199.80;1685127;83;21047;-75
2021/06/18 11:10:45;;;;;;;3.77;1.65;;;;;;;28.14;45.13;100197.70;1668488;85;21094;-74
2021/06/18 11:13:12;;;;;;;6.30;2.33;;;;;;;28.25;44.83;100194.41;1691118;83;21020;-73
2021/06/18 11:15:43;;;;;;;7.62;2.42;;;;;;;28.33;44.81;100187.31;1711857;83;21079;-74
2021/06/18 11:18:16;;;;;;;8.33;2.55;;;;;;;28.37;44.39;100188.78;1695325;83;21755;-75
2021/06/18 11:20:49;;;;;;;11.33;2.45;;;;;;;28.38;44.19;100177.36;1711386;83;21579;-75
2021/06/18 11:23:21;;;;;;;7.70;2.05;;;;;;;28.41;44.12;100189.67;1679393;85;21134;-75
2021/06/18 11:25:54;;;;;;;3.77;2.12;;;;;;;28.47;44.06;100166.91;1685737;83;20999;-73
2021/06/18 11:28:27;;;;;;;8.08;2.40;;;;;;;28.51;44.32;100186.37;1711981;83;21118;-71
2021/06/18 11:31:09;;;;;;;7.78;3.17;;;;;;;28.61;44.56;100183.87;1664585;83;21535;-81
2021/06/18 11:33:46;;;;;;;6.43;2.80;;;;;;;28.74;44.28;100187.36;1711787;83;20973;-79
2021/06/18 11:36:24;;;;;;;4.12;2.17;;;;;;;28.87;44.07;100181.14;1710884;82;21560;-74
2021/06/18 11:38:58;;;;;;;5.30;2.67;;;;;;;28.97;43.33;100174.44;1705663;84;21810;-78